sensor_id;sensor_type;location;lat;lon;timestamp;P1;durP1;ratioP1;P2;durP2;ratioP2
79036;SDS011;68434;59.896;30.474;2023-09-30T00:00:15;14.07;;;10.55;;
79036;SDS011;68434;59.896;30.474;2023-09-30T00:02:42;15.05;;;11.85;;
79036;SDS011;68434;59.896;30.474;2023-09-30T00:05:11;14.57;;;10.80;;
79036;SDS011;68434;59.896;30.474;2023-09-30T00:07:40;14.30;;;10.63;;
79036;SDS011;68434;59.896;30.474;2023-09-30T00:10:07;16.30;;;12.77;;
79036;SDS011;68434;59.896;30.474;2023-09-30T00:12:36;15.13;;;12.82;;
79036;SDS011;68434;59.896;30.474;2023-09-30T00:15:03;15.77;;;12.07;;
79036;SDS011;68434;59.896;30.474;2023-09-30T00:17:31;14.02;;;11.27;;
79036;SDS011;68434;59.896;30.474;2023-09-30T00:19:59;14.32;;;10.60;;
79036;SDS011;68434;59.896;30.474;2023-09-30T00:22:28;15.30;;;11.40;;
79036;SDS011;68434;59.896;30.474;2023-09-30T00:24:55;13.85;;;10.82;;
79036;SDS011;68434;59.896;30.474;2023-09-30T00:27:22;15.93;;;11.27;;
79036;SDS011;68434;59.896;30.474;2023-09-30T00:29:50;12.23;;;10.70;;
79036;SDS011;68434;59.896;30.474;2023-09-30T00:32:17;16.52;;;11.15;;
79036;SDS011;68434;59.896;30.474;2023-09-30T00:34:45;17.95;;;11.52;;
79036;SDS011;68434;59.896;30.474;2023-09-30T00:37:12;18.70;;;12.10;;
79036;SDS011;68434;59.896;30.474;2023-09-30T00:39:41;14.07;;;11.55;;
79036;SDS011;68434;59.896;30.474;2023-09-30T00:42:10;13.55;;;11.05;;
79036;SDS011;68434;59.896;30.474;2023-09-30T00:44:37;20.38;;;11.88;;
79036;SDS011;68434;59.896;30.474;2023-09-30T00:49:34;13.65;;;11.10;;
79036;SDS011;68434;59.896;30.474;2023-09-30T00:52:01;17.40;;;11.05;;
79036;SDS011;68434;59.896;30.474;2023-09-30T00:54:30;14.85;;;11.30;;
79036;SDS011;68434;59.896;30.474;2023-09-30T00:56:59;15.50;;;12.45;;
79036;SDS011;68434;59.896;30.474;2023-09-30T00:59:27;18.25;;;12.93;;
79036;SDS011;68434;59.896;30.474;2023-09-30T01:01:58;18.70;;;13.25;;
79036;SDS011;68434;59.896;30.474;2023-09-30T01:04:31;16.98;;;11.98;;
79036;SDS011;68434;59.896;30.474;2023-09-30T01:06:58;19.48;;;12.63;;
79036;SDS011;68434;59.896;30.474;2023-09-30T01:09:26;16.70;;;11.00;;
79036;SDS011;68434;59.896;30.474;2023-09-30T01:14:27;15.63;;;11.57;;
79036;SDS011;68434;59.896;30.474;2023-09-30T01:16:55;15.75;;;11.55;;
79036;SDS011;68434;59.896;30.474;2023-09-30T01:19:23;16.45;;;12.65;;
79036;SDS011;68434;59.896;30.474;2023-09-30T01:24:21;17.00;;;11.45;;
79036;SDS011;68434;59.896;30.474;2023-09-30T01:26:50;17.08;;;11.43;;
79036;SDS011;68434;59.896;30.474;2023-09-30T01:29:19;16.50;;;12.35;;
79036;SDS011;68434;59.896;30.474;2023-09-30T01:31:47;16.20;;;11.73;;
79036;SDS011;68434;59.896;30.474;2023-09-30T01:34:15;21.13;;;11.90;;
79036;SDS011;68434;59.896;30.474;2023-09-30T01:39:12;16.67;;;11.32;;
79036;SDS011;68434;59.896;30.474;2023-09-30T01:41:39;15.82;;;11.95;;
79036;SDS011;68434;59.896;30.474;2023-09-30T01:44:07;17.90;;;11.88;;
79036;SDS011;68434;59.896;30.474;2023-09-30T01:46:36;15.52;;;11.98;;
79036;SDS011;68434;59.896;30.474;2023-09-30T01:49:03;17.27;;;11.07;;
79036;SDS011;68434;59.896;30.474;2023-09-30T01:51:31;12.63;;;10.40;;
79036;SDS011;68434;59.896;30.474;2023-09-30T01:53:58;16.27;;;11.68;;
79036;SDS011;68434;59.896;30.474;2023-09-30T01:56:27;15.02;;;11.05;;
79036;SDS011;68434;59.896;30.474;2023-09-30T01:58:54;18.30;;;11.35;;
79036;SDS011;68434;59.896;30.474;2023-09-30T02:01:22;17.00;;;11.52;;
79036;SDS011;68434;59.896;30.474;2023-09-30T02:03:50;19.95;;;11.55;;
79036;SDS011;68434;59.896;30.474;2023-09-30T02:06:18;14.40;;;10.48;;
79036;SDS011;68434;59.896;30.474;2023-09-30T02:08:45;19.98;;;10.90;;
79036;SDS011;68434;59.896;30.474;2023-09-30T02:11:13;15.05;;;11.02;;
79036;SDS011;68434;59.896;30.474;2023-09-30T02:13:42;14.50;;;10.90;;
79036;SDS011;68434;59.896;30.474;2023-09-30T02:16:11;17.80;;;10.75;;
79036;SDS011;68434;59.896;30.474;2023-09-30T02:18:42;14.50;;;11.30;;
79036;SDS011;68434;59.896;30.474;2023-09-30T02:21:12;14.52;;;11.68;;
79036;SDS011;68434;59.896;30.474;2023-09-30T02:23:39;18.73;;;11.50;;
79036;SDS011;68434;59.896;30.474;2023-09-30T02:26:07;14.38;;;11.27;;
79036;SDS011;68434;59.896;30.474;2023-09-30T02:28:34;19.10;;;11.63;;
79036;SDS011;68434;59.896;30.474;2023-09-30T02:31:03;16.40;;;11.02;;
79036;SDS011;68434;59.896;30.474;2023-09-30T02:33:32;14.70;;;11.27;;
79036;SDS011;68434;59.896;30.474;2023-09-30T02:36:01;13.75;;;11.35;;
79036;SDS011;68434;59.896;30.474;2023-09-30T02:38:31;14.52;;;11.27;;
79036;SDS011;68434;59.896;30.474;2023-09-30T02:41:01;15.40;;;11.02;;
79036;SDS011;68434;59.896;30.474;2023-09-30T02:43:28;15.75;;;11.23;;
79036;SDS011;68434;59.896;30.474;2023-09-30T02:45:56;14.70;;;11.05;;
79036;SDS011;68434;59.896;30.474;2023-09-30T02:48:25;15.20;;;11.32;;
79036;SDS011;68434;59.896;30.474;2023-09-30T02:50:53;15.93;;;11.32;;
79036;SDS011;68434;59.896;30.474;2023-09-30T02:53:20;17.85;;;10.23;;
79036;SDS011;68434;59.896;30.474;2023-09-30T02:55:50;15.00;;;10.20;;
79036;SDS011;68434;59.896;30.474;2023-09-30T02:58:22;15.82;;;10.40;;
79036;SDS011;68434;59.896;30.474;2023-09-30T03:00:51;16.45;;;11.82;;
79036;SDS011;68434;59.896;30.474;2023-09-30T03:03:19;13.40;;;11.25;;
79036;SDS011;68434;59.896;30.474;2023-09-30T03:05:48;16.33;;;11.85;;
79036;SDS011;68434;59.896;30.474;2023-09-30T03:08:15;19.58;;;12.60;;
79036;SDS011;68434;59.896;30.474;2023-09-30T03:10:43;14.15;;;11.85;;
79036;SDS011;68434;59.896;30.474;2023-09-30T03:13:11;15.40;;;11.10;;
79036;SDS011;68434;59.896;30.474;2023-09-30T03:15:39;14.90;;;10.07;;
79036;SDS011;68434;59.896;30.474;2023-09-30T03:18:06;13.75;;;10.50;;
79036;SDS011;68434;59.896;30.474;2023-09-30T03:20:34;17.38;;;10.45;;
79036;SDS011;68434;59.896;30.474;2023-09-30T03:23:06;12.65;;;10.32;;
79036;SDS011;68434;59.896;30.474;2023-09-30T03:25:34;14.32;;;10.65;;
79036;SDS011;68434;59.896;30.474;2023-09-30T03:28:02;14.50;;;10.95;;
79036;SDS011;68434;59.896;30.474;2023-09-30T03:30:31;13.80;;;10.57;;
79036;SDS011;68434;59.896;30.474;2023-09-30T03:33:00;15.13;;;10.00;;
79036;SDS011;68434;59.896;30.474;2023-09-30T03:35:30;17.90;;;10.10;;
79036;SDS011;68434;59.896;30.474;2023-09-30T03:37:57;14.25;;;10.80;;
79036;SDS011;68434;59.896;30.474;2023-09-30T03:40:29;15.13;;;10.23;;
79036;SDS011;68434;59.896;30.474;2023-09-30T03:42:59;13.88;;;10.32;;
79036;SDS011;68434;59.896;30.474;2023-09-30T03:45:27;13.02;;;10.00;;
79036;SDS011;68434;59.896;30.474;2023-09-30T03:47:54;13.82;;;9.55;;
79036;SDS011;68434;59.896;30.474;2023-09-30T03:50:21;13.23;;;9.60;;
79036;SDS011;68434;59.896;30.474;2023-09-30T03:52:49;13.85;;;10.38;;
79036;SDS011;68434;59.896;30.474;2023-09-30T03:55:17;11.30;;;9.52;;
79036;SDS011;68434;59.896;30.474;2023-09-30T03:57:47;13.00;;;10.15;;
79036;SDS011;68434;59.896;30.474;2023-09-30T04:00:16;16.38;;;10.50;;
79036;SDS011;68434;59.896;30.474;2023-09-30T04:02:44;12.80;;;10.10;;
79036;SDS011;68434;59.896;30.474;2023-09-30T04:05:15;15.02;;;10.05;;
79036;SDS011;68434;59.896;30.474;2023-09-30T04:07:42;16.52;;;10.90;;
79036;SDS011;68434;59.896;30.474;2023-09-30T04:10:10;14.00;;;10.68;;
79036;SDS011;68434;59.896;30.474;2023-09-30T04:12:37;14.30;;;10.93;;
79036;SDS011;68434;59.896;30.474;2023-09-30T04:15:07;16.77;;;10.77;;
79036;SDS011;68434;59.896;30.474;2023-09-30T04:17:37;13.77;;;10.32;;
79036;SDS011;68434;59.896;30.474;2023-09-30T04:20:06;19.30;;;10.25;;
79036;SDS011;68434;59.896;30.474;2023-09-30T04:22:37;17.05;;;9.95;;
79036;SDS011;68434;59.896;30.474;2023-09-30T04:25:06;16.05;;;10.43;;
79036;SDS011;68434;59.896;30.474;2023-09-30T04:27:36;17.38;;;10.60;;
79036;SDS011;68434;59.896;30.474;2023-09-30T04:30:04;16.25;;;10.30;;
79036;SDS011;68434;59.896;30.474;2023-09-30T04:32:36;15.82;;;11.70;;
79036;SDS011;68434;59.896;30.474;2023-09-30T04:35:04;16.45;;;11.45;;
79036;SDS011;68434;59.896;30.474;2023-09-30T04:37:33;19.70;;;11.57;;
79036;SDS011;68434;59.896;30.474;2023-09-30T04:40:03;16.55;;;11.07;;
79036;SDS011;68434;59.896;30.474;2023-09-30T04:42:33;17.48;;;10.82;;
79036;SDS011;68434;59.896;30.474;2023-09-30T04:45:02;16.70;;;12.18;;
79036;SDS011;68434;59.896;30.474;2023-09-30T04:47:33;18.63;;;11.82;;
79036;SDS011;68434;59.896;30.474;2023-09-30T04:50:00;16.90;;;11.13;;
79036;SDS011;68434;59.896;30.474;2023-09-30T04:52:30;19.85;;;10.90;;
79036;SDS011;68434;59.896;30.474;2023-09-30T04:54:58;14.95;;;10.95;;
79036;SDS011;68434;59.896;30.474;2023-09-30T04:57:26;14.27;;;11.13;;
79036;SDS011;68434;59.896;30.474;2023-09-30T04:59:53;15.32;;;10.65;;
79036;SDS011;68434;59.896;30.474;2023-09-30T05:02:21;17.40;;;11.90;;
79036;SDS011;68434;59.896;30.474;2023-09-30T05:04:51;23.73;;;14.25;;
79036;SDS011;68434;59.896;30.474;2023-09-30T05:07:19;20.08;;;13.45;;
79036;SDS011;68434;59.896;30.474;2023-09-30T05:12:13;20.00;;;13.60;;
79036;SDS011;68434;59.896;30.474;2023-09-30T05:14:41;20.42;;;13.25;;
79036;SDS011;68434;59.896;30.474;2023-09-30T05:17:09;21.38;;;13.95;;
79036;SDS011;68434;59.896;30.474;2023-09-30T05:19:37;19.42;;;13.90;;
79036;SDS011;68434;59.896;30.474;2023-09-30T05:22:06;19.00;;;12.32;;
79036;SDS011;68434;59.896;30.474;2023-09-30T05:24:33;18.63;;;12.70;;
79036;SDS011;68434;59.896;30.474;2023-09-30T05:27:01;17.98;;;12.65;;
79036;SDS011;68434;59.896;30.474;2023-09-30T05:29:29;16.20;;;11.35;;
79036;SDS011;68434;59.896;30.474;2023-09-30T05:31:59;16.55;;;11.35;;
79036;SDS011;68434;59.896;30.474;2023-09-30T05:34:26;16.92;;;11.20;;
79036;SDS011;68434;59.896;30.474;2023-09-30T05:36:54;14.95;;;10.48;;
79036;SDS011;68434;59.896;30.474;2023-09-30T05:39:22;16.90;;;10.40;;
79036;SDS011;68434;59.896;30.474;2023-09-30T05:41:51;16.50;;;10.57;;
79036;SDS011;68434;59.896;30.474;2023-09-30T05:44:18;15.48;;;10.48;;
79036;SDS011;68434;59.896;30.474;2023-09-30T05:46:45;14.30;;;10.40;;
79036;SDS011;68434;59.896;30.474;2023-09-30T05:49:13;14.95;;;10.98;;
79036;SDS011;68434;59.896;30.474;2023-09-30T05:51:41;14.82;;;10.27;;
79036;SDS011;68434;59.896;30.474;2023-09-30T05:56:38;15.65;;;10.80;;
79036;SDS011;68434;59.896;30.474;2023-09-30T05:59:08;13.73;;;9.60;;
79036;SDS011;68434;59.896;30.474;2023-09-30T06:01:35;12.23;;;9.70;;
79036;SDS011;68434;59.896;30.474;2023-09-30T06:04:05;14.10;;;9.65;;
79036;SDS011;68434;59.896;30.474;2023-09-30T06:06:32;14.43;;;10.70;;
79036;SDS011;68434;59.896;30.474;2023-09-30T06:09:00;18.15;;;9.23;;
79036;SDS011;68434;59.896;30.474;2023-09-30T06:11:27;15.35;;;9.55;;
79036;SDS011;68434;59.896;30.474;2023-09-30T06:13:56;13.05;;;10.13;;
79036;SDS011;68434;59.896;30.474;2023-09-30T06:16:25;16.55;;;11.70;;
79036;SDS011;68434;59.896;30.474;2023-09-30T06:18:52;14.57;;;10.25;;
79036;SDS011;68434;59.896;30.474;2023-09-30T06:21:20;14.10;;;10.32;;
79036;SDS011;68434;59.896;30.474;2023-09-30T06:26:17;14.18;;;9.20;;
79036;SDS011;68434;59.896;30.474;2023-09-30T06:28:46;13.23;;;10.07;;
79036;SDS011;68434;59.896;30.474;2023-09-30T06:31:15;13.75;;;9.27;;
79036;SDS011;68434;59.896;30.474;2023-09-30T06:33:43;11.35;;;9.10;;
79036;SDS011;68434;59.896;30.474;2023-09-30T06:36:11;13.45;;;10.45;;
79036;SDS011;68434;59.896;30.474;2023-09-30T06:38:40;14.68;;;10.27;;
79036;SDS011;68434;59.896;30.474;2023-09-30T06:41:08;13.45;;;10.18;;
79036;SDS011;68434;59.896;30.474;2023-09-30T06:43:36;16.30;;;9.82;;
79036;SDS011;68434;59.896;30.474;2023-09-30T06:46:07;13.93;;;9.68;;
79036;SDS011;68434;59.896;30.474;2023-09-30T06:48:37;14.52;;;10.10;;
79036;SDS011;68434;59.896;30.474;2023-09-30T06:51:05;14.35;;;9.05;;
79036;SDS011;68434;59.896;30.474;2023-09-30T06:53:33;13.38;;;9.93;;
79036;SDS011;68434;59.896;30.474;2023-09-30T06:56:04;14.05;;;10.35;;
79036;SDS011;68434;59.896;30.474;2023-09-30T06:58:32;18.50;;;10.38;;
79036;SDS011;68434;59.896;30.474;2023-09-30T07:00:59;12.52;;;10.43;;
79036;SDS011;68434;59.896;30.474;2023-09-30T07:03:31;14.77;;;10.75;;
79036;SDS011;68434;59.896;30.474;2023-09-30T07:06:01;21.38;;;14.20;;
79036;SDS011;68434;59.896;30.474;2023-09-30T07:08:32;17.50;;;11.70;;
79036;SDS011;68434;59.896;30.474;2023-09-30T07:11:00;16.83;;;11.50;;
79036;SDS011;68434;59.896;30.474;2023-09-30T07:13:27;14.10;;;10.23;;
79036;SDS011;68434;59.896;30.474;2023-09-30T07:15:55;15.43;;;10.68;;
79036;SDS011;68434;59.896;30.474;2023-09-30T07:18:22;16.40;;;11.13;;
79036;SDS011;68434;59.896;30.474;2023-09-30T07:23:19;13.98;;;10.48;;
79036;SDS011;68434;59.896;30.474;2023-09-30T07:25:47;15.55;;;10.68;;
79036;SDS011;68434;59.896;30.474;2023-09-30T07:28:15;15.50;;;10.63;;
79036;SDS011;68434;59.896;30.474;2023-09-30T07:30:43;12.35;;;10.63;;
79036;SDS011;68434;59.896;30.474;2023-09-30T07:33:11;17.65;;;11.35;;
79036;SDS011;68434;59.896;30.474;2023-09-30T07:35:39;12.77;;;10.68;;
79036;SDS011;68434;59.896;30.474;2023-09-30T07:38:07;13.68;;;10.55;;
79036;SDS011;68434;59.896;30.474;2023-09-30T07:40:37;19.90;;;11.27;;
79036;SDS011;68434;59.896;30.474;2023-09-30T07:43:04;13.85;;;10.95;;
79036;SDS011;68434;59.896;30.474;2023-09-30T07:45:32;14.30;;;11.23;;
79036;SDS011;68434;59.896;30.474;2023-09-30T07:48:03;14.40;;;10.45;;
79036;SDS011;68434;59.896;30.474;2023-09-30T07:50:32;16.85;;;11.27;;
79036;SDS011;68434;59.896;30.474;2023-09-30T07:53:00;16.60;;;11.82;;
79036;SDS011;68434;59.896;30.474;2023-09-30T07:55:28;22.33;;;12.93;;
79036;SDS011;68434;59.896;30.474;2023-09-30T07:57:58;15.50;;;10.98;;
79036;SDS011;68434;59.896;30.474;2023-09-30T08:00:26;14.55;;;9.60;;
79036;SDS011;68434;59.896;30.474;2023-09-30T08:02:55;13.75;;;10.20;;
79036;SDS011;68434;59.896;30.474;2023-09-30T08:05:26;13.77;;;10.40;;
79036;SDS011;68434;59.896;30.474;2023-09-30T08:07:53;13.50;;;9.43;;
79036;SDS011;68434;59.896;30.474;2023-09-30T08:10:20;14.68;;;9.82;;
79036;SDS011;68434;59.896;30.474;2023-09-30T08:12:48;13.85;;;9.75;;
79036;SDS011;68434;59.896;30.474;2023-09-30T08:15:17;14.55;;;9.88;;
79036;SDS011;68434;59.896;30.474;2023-09-30T08:17:44;13.80;;;9.80;;
79036;SDS011;68434;59.896;30.474;2023-09-30T08:20:12;15.55;;;9.45;;
79036;SDS011;68434;59.896;30.474;2023-09-30T08:22:40;13.27;;;10.00;;
79036;SDS011;68434;59.896;30.474;2023-09-30T08:25:08;13.07;;;9.60;;
79036;SDS011;68434;59.896;30.474;2023-09-30T08:30:04;13.65;;;8.75;;
79036;SDS011;68434;59.896;30.474;2023-09-30T08:32:35;11.88;;;9.43;;
79036;SDS011;68434;59.896;30.474;2023-09-30T08:35:04;13.35;;;9.35;;
79036;SDS011;68434;59.896;30.474;2023-09-30T08:37:33;16.05;;;9.73;;
79036;SDS011;68434;59.896;30.474;2023-09-30T08:40:01;17.02;;;10.25;;
79036;SDS011;68434;59.896;30.474;2023-09-30T08:42:32;13.02;;;9.65;;
79036;SDS011;68434;59.896;30.474;2023-09-30T08:47:28;10.18;;;8.63;;
79036;SDS011;68434;59.896;30.474;2023-09-30T08:49:58;13.00;;;9.50;;
79036;SDS011;68434;59.896;30.474;2023-09-30T08:52:31;12.45;;;8.50;;
79036;SDS011;68434;59.896;30.474;2023-09-30T08:55:02;12.43;;;8.88;;
79036;SDS011;68434;59.896;30.474;2023-09-30T08:57:31;12.18;;;9.23;;
79036;SDS011;68434;59.896;30.474;2023-09-30T08:59:58;11.35;;;8.70;;
79036;SDS011;68434;59.896;30.474;2023-09-30T09:02:29;12.43;;;9.52;;
79036;SDS011;68434;59.896;30.474;2023-09-30T09:04:59;13.30;;;9.30;;
79036;SDS011;68434;59.896;30.474;2023-09-30T09:07:29;12.57;;;8.60;;
79036;SDS011;68434;59.896;30.474;2023-09-30T09:10:03;13.95;;;9.88;;
79036;SDS011;68434;59.896;30.474;2023-09-30T09:12:37;13.63;;;9.10;;
79036;SDS011;68434;59.896;30.474;2023-09-30T09:15:07;11.38;;;8.43;;
79036;SDS011;68434;59.896;30.474;2023-09-30T09:20:18;12.77;;;8.55;;
79036;SDS011;68434;59.896;30.474;2023-09-30T09:22:50;13.35;;;9.65;;
79036;SDS011;68434;59.896;30.474;2023-09-30T09:25:22;18.60;;;9.70;;
79036;SDS011;68434;59.896;30.474;2023-09-30T09:27:51;15.43;;;8.98;;
79036;SDS011;68434;59.896;30.474;2023-09-30T09:30:20;12.38;;;9.55;;
79036;SDS011;68434;59.896;30.474;2023-09-30T09:32:52;12.60;;;8.52;;
79036;SDS011;68434;59.896;30.474;2023-09-30T09:35:28;15.90;;;7.95;;
79036;SDS011;68434;59.896;30.474;2023-09-30T09:38:00;12.15;;;8.73;;
79036;SDS011;68434;59.896;30.474;2023-09-30T09:40:33;13.13;;;8.75;;
79036;SDS011;68434;59.896;30.474;2023-09-30T09:43:02;11.18;;;8.55;;
79036;SDS011;68434;59.896;30.474;2023-09-30T09:45:32;10.15;;;8.10;;
79036;SDS011;68434;59.896;30.474;2023-09-30T09:48:02;9.38;;;8.18;;
79036;SDS011;68434;59.896;30.474;2023-09-30T09:50:35;15.13;;;8.43;;
79036;SDS011;68434;59.896;30.474;2023-09-30T09:53:04;11.18;;;8.27;;
79036;SDS011;68434;59.896;30.474;2023-09-30T09:55:32;12.30;;;8.45;;
79036;SDS011;68434;59.896;30.474;2023-09-30T09:58:04;14.18;;;9.48;;
79036;SDS011;68434;59.896;30.474;2023-09-30T10:00:38;14.35;;;9.30;;
79036;SDS011;68434;59.896;30.474;2023-09-30T10:03:17;14.95;;;9.85;;
79036;SDS011;68434;59.896;30.474;2023-09-30T10:05:49;14.98;;;9.27;;
79036;SDS011;68434;59.896;30.474;2023-09-30T10:08:19;13.18;;;9.30;;
79036;SDS011;68434;59.896;30.474;2023-09-30T10:10:56;11.98;;;9.40;;
79036;SDS011;68434;59.896;30.474;2023-09-30T10:19:19;13.30;;;8.82;;
79036;SDS011;68434;59.896;30.474;2023-09-30T10:24:52;12.65;;;8.73;;
79036;SDS011;68434;59.896;30.474;2023-09-30T10:27:32;11.23;;;9.50;;
79036;SDS011;68434;59.896;30.474;2023-09-30T10:30:06;13.38;;;8.40;;
79036;SDS011;68434;59.896;30.474;2023-09-30T10:35:46;12.02;;;7.88;;
79036;SDS011;68434;59.896;30.474;2023-09-30T10:41:09;11.50;;;8.00;;
79036;SDS011;68434;59.896;30.474;2023-09-30T10:43:42;10.85;;;7.80;;
79036;SDS011;68434;59.896;30.474;2023-09-30T10:46:31;10.70;;;7.68;;
79036;SDS011;68434;59.896;30.474;2023-09-30T10:49:31;10.73;;;7.40;;
79036;SDS011;68434;59.896;30.474;2023-09-30T10:52:02;12.38;;;8.27;;
79036;SDS011;68434;59.896;30.474;2023-09-30T10:54:40;9.90;;;8.10;;
79036;SDS011;68434;59.896;30.474;2023-09-30T10:57:11;8.95;;;7.82;;
79036;SDS011;68434;59.896;30.474;2023-09-30T10:59:39;10.70;;;7.63;;
79036;SDS011;68434;59.896;30.474;2023-09-30T11:02:23;11.18;;;7.22;;
79036;SDS011;68434;59.896;30.474;2023-09-30T11:04:54;10.35;;;7.38;;
79036;SDS011;68434;59.896;30.474;2023-09-30T11:07:26;11.93;;;7.25;;
79036;SDS011;68434;59.896;30.474;2023-09-30T11:10:06;9.38;;;7.55;;
79036;SDS011;68434;59.896;30.474;2023-09-30T11:12:39;9.10;;;7.20;;
79036;SDS011;68434;59.896;30.474;2023-09-30T11:15:25;10.27;;;6.43;;
79036;SDS011;68434;59.896;30.474;2023-09-30T11:17:53;8.70;;;6.88;;
79036;SDS011;68434;59.896;30.474;2023-09-30T11:20:40;10.40;;;7.20;;
79036;SDS011;68434;59.896;30.474;2023-09-30T11:23:11;10.65;;;7.18;;
79036;SDS011;68434;59.896;30.474;2023-09-30T11:25:47;10.38;;;7.45;;
79036;SDS011;68434;59.896;30.474;2023-09-30T11:28:21;8.50;;;6.47;;
79036;SDS011;68434;59.896;30.474;2023-09-30T11:30:55;9.23;;;7.40;;
79036;SDS011;68434;59.896;30.474;2023-09-30T11:33:25;11.35;;;7.43;;
79036;SDS011;68434;59.896;30.474;2023-09-30T11:35:59;9.82;;;7.63;;
79036;SDS011;68434;59.896;30.474;2023-09-30T11:38:34;12.85;;;7.97;;
79036;SDS011;68434;59.896;30.474;2023-09-30T11:41:05;15.82;;;7.65;;
79036;SDS011;68434;59.896;30.474;2023-09-30T11:43:35;20.63;;;8.25;;
79036;SDS011;68434;59.896;30.474;2023-09-30T11:46:08;14.77;;;8.00;;
79036;SDS011;68434;59.896;30.474;2023-09-30T11:48:40;14.85;;;8.10;;
79036;SDS011;68434;59.896;30.474;2023-09-30T11:51:23;13.52;;;7.47;;
79036;SDS011;68434;59.896;30.474;2023-09-30T11:53:52;11.30;;;6.43;;
79036;SDS011;68434;59.896;30.474;2023-09-30T11:56:25;9.13;;;6.25;;
79036;SDS011;68434;59.896;30.474;2023-09-30T11:58:56;13.80;;;6.95;;
79036;SDS011;68434;59.896;30.474;2023-09-30T12:01:25;11.55;;;6.32;;
79036;SDS011;68434;59.896;30.474;2023-09-30T12:04:00;11.93;;;6.10;;
79036;SDS011;68434;59.896;30.474;2023-09-30T12:06:32;13.60;;;6.40;;
79036;SDS011;68434;59.896;30.474;2023-09-30T12:09:04;9.98;;;7.03;;
79036;SDS011;68434;59.896;30.474;2023-09-30T12:11:37;8.77;;;6.90;;
79036;SDS011;68434;59.896;30.474;2023-09-30T12:14:06;10.77;;;6.93;;
79036;SDS011;68434;59.896;30.474;2023-09-30T12:16:37;9.68;;;6.50;;
79036;SDS011;68434;59.896;30.474;2023-09-30T12:19:13;13.25;;;6.80;;
79036;SDS011;68434;59.896;30.474;2023-09-30T12:21:45;13.82;;;6.75;;
79036;SDS011;68434;59.896;30.474;2023-09-30T12:24:14;11.98;;;7.10;;
79036;SDS011;68434;59.896;30.474;2023-09-30T12:26:46;11.18;;;6.53;;
79036;SDS011;68434;59.896;30.474;2023-09-30T12:29:15;10.35;;;6.10;;
79036;SDS011;68434;59.896;30.474;2023-09-30T12:31:45;9.00;;;5.68;;
79036;SDS011;68434;59.896;30.474;2023-09-30T12:34:17;10.65;;;5.90;;
79036;SDS011;68434;59.896;30.474;2023-09-30T12:36:52;9.82;;;6.35;;
79036;SDS011;68434;59.896;30.474;2023-09-30T12:39:20;9.93;;;6.75;;
79036;SDS011;68434;59.896;30.474;2023-09-30T12:41:51;10.43;;;6.65;;
79036;SDS011;68434;59.896;30.474;2023-09-30T12:44:19;10.63;;;5.95;;
79036;SDS011;68434;59.896;30.474;2023-09-30T12:46:48;10.38;;;6.20;;
79036;SDS011;68434;59.896;30.474;2023-09-30T12:49:21;7.28;;;5.63;;
79036;SDS011;68434;59.896;30.474;2023-09-30T12:51:49;8.95;;;6.15;;
79036;SDS011;68434;59.896;30.474;2023-09-30T12:54:17;8.77;;;5.53;;
79036;SDS011;68434;59.896;30.474;2023-09-30T12:56:48;8.95;;;4.85;;
79036;SDS011;68434;59.896;30.474;2023-09-30T12:59:21;8.00;;;4.80;;
79036;SDS011;68434;59.896;30.474;2023-09-30T13:01:51;9.10;;;5.68;;
79036;SDS011;68434;59.896;30.474;2023-09-30T13:04:25;8.55;;;5.28;;
79036;SDS011;68434;59.896;30.474;2023-09-30T13:07:03;11.15;;;5.85;;
79036;SDS011;68434;59.896;30.474;2023-09-30T13:09:35;9.90;;;5.63;;
79036;SDS011;68434;59.896;30.474;2023-09-30T13:12:05;11.80;;;5.90;;
79036;SDS011;68434;59.896;30.474;2023-09-30T13:14:37;8.95;;;4.95;;
79036;SDS011;68434;59.896;30.474;2023-09-30T13:17:08;7.00;;;4.60;;
79036;SDS011;68434;59.896;30.474;2023-09-30T13:19:40;8.30;;;4.75;;
79036;SDS011;68434;59.896;30.474;2023-09-30T13:22:09;8.77;;;4.75;;
79036;SDS011;68434;59.896;30.474;2023-09-30T13:24:39;6.88;;;4.32;;
79036;SDS011;68434;59.896;30.474;2023-09-30T13:27:10;7.30;;;3.90;;
79036;SDS011;68434;59.896;30.474;2023-09-30T13:29:43;7.70;;;4.18;;
79036;SDS011;68434;59.896;30.474;2023-09-30T13:32:12;4.93;;;3.45;;
79036;SDS011;68434;59.896;30.474;2023-09-30T13:34:44;6.32;;;3.97;;
79036;SDS011;68434;59.896;30.474;2023-09-30T13:37:14;7.70;;;3.63;;
79036;SDS011;68434;59.896;30.474;2023-09-30T13:39:46;6.32;;;3.80;;
79036;SDS011;68434;59.896;30.474;2023-09-30T13:42:17;7.30;;;3.97;;
79036;SDS011;68434;59.896;30.474;2023-09-30T13:44:48;7.13;;;3.63;;
79036;SDS011;68434;59.896;30.474;2023-09-30T13:47:17;8.27;;;3.85;;
79036;SDS011;68434;59.896;30.474;2023-09-30T13:49:46;7.63;;;3.90;;
79036;SDS011;68434;59.896;30.474;2023-09-30T13:52:14;5.88;;;3.35;;
79036;SDS011;68434;59.896;30.474;2023-09-30T13:54:43;6.65;;;3.58;;
79036;SDS011;68434;59.896;30.474;2023-09-30T13:57:11;7.00;;;3.55;;
79036;SDS011;68434;59.896;30.474;2023-09-30T13:59:43;7.78;;;3.78;;
79036;SDS011;68434;59.896;30.474;2023-09-30T14:02:20;5.85;;;3.35;;
79036;SDS011;68434;59.896;30.474;2023-09-30T14:04:53;6.70;;;3.83;;
79036;SDS011;68434;59.896;30.474;2023-09-30T14:07:22;6.65;;;3.70;;
79036;SDS011;68434;59.896;30.474;2023-09-30T14:09:54;6.63;;;4.20;;
79036;SDS011;68434;59.896;30.474;2023-09-30T14:12:23;7.50;;;3.80;;
79036;SDS011;68434;59.896;30.474;2023-09-30T14:14:52;7.30;;;3.95;;
79036;SDS011;68434;59.896;30.474;2023-09-30T14:17:27;7.25;;;3.58;;
79036;SDS011;68434;59.896;30.474;2023-09-30T14:19:57;7.20;;;3.83;;
79036;SDS011;68434;59.896;30.474;2023-09-30T14:22:30;8.05;;;4.00;;
79036;SDS011;68434;59.896;30.474;2023-09-30T14:25:06;6.55;;;4.00;;
79036;SDS011;68434;59.896;30.474;2023-09-30T14:27:48;6.20;;;3.45;;
79036;SDS011;68434;59.896;30.474;2023-09-30T14:30:20;6.90;;;4.03;;
79036;SDS011;68434;59.896;30.474;2023-09-30T14:32:57;6.88;;;4.13;;
79036;SDS011;68434;59.896;30.474;2023-09-30T14:35:27;6.40;;;4.00;;
79036;SDS011;68434;59.896;30.474;2023-09-30T14:37:57;6.32;;;3.78;;
79036;SDS011;68434;59.896;30.474;2023-09-30T14:40:29;6.65;;;4.03;;
79036;SDS011;68434;59.896;30.474;2023-09-30T14:43:06;6.32;;;4.00;;
79036;SDS011;68434;59.896;30.474;2023-09-30T14:45:39;6.93;;;3.78;;
79036;SDS011;68434;59.896;30.474;2023-09-30T14:48:12;6.78;;;4.07;;
79036;SDS011;68434;59.896;30.474;2023-09-30T14:50:48;6.75;;;3.92;;
79036;SDS011;68434;59.896;30.474;2023-09-30T14:53:17;7.45;;;4.30;;
79036;SDS011;68434;59.896;30.474;2023-09-30T14:55:47;8.38;;;4.00;;
79036;SDS011;68434;59.896;30.474;2023-09-30T14:58:16;7.75;;;4.25;;
79036;SDS011;68434;59.896;30.474;2023-09-30T15:00:55;6.47;;;3.50;;
79036;SDS011;68434;59.896;30.474;2023-09-30T15:03:34;7.38;;;4.38;;
79036;SDS011;68434;59.896;30.474;2023-09-30T15:06:08;8.50;;;4.85;;
79036;SDS011;68434;59.896;30.474;2023-09-30T15:08:39;5.90;;;3.55;;
79036;SDS011;68434;59.896;30.474;2023-09-30T15:11:12;6.85;;;4.15;;
79036;SDS011;68434;59.896;30.474;2023-09-30T15:13:45;6.28;;;4.28;;
79036;SDS011;68434;59.896;30.474;2023-09-30T15:16:17;7.70;;;3.78;;